Time;durP1;ratioP1;P1;durP2;ratioP2;P2;SDS_P1;SDS_P2;PMS_P1;PMS_P2;Temp;Humidity;BMP_temperature;BMP_pressure;BME280_temperature;BME280_humidity;BME280_pressure;Samples;Min_cycle;Max_cycle;Signal;HPM_P1;HPM_P2
2023/11/30 00:00:03;;;;;;;2.45;1.75;;;1.00;99.90;;;;;;5059448;28;20765;-80
2023/11/30 00:02:32;;;;;;;4.53;2.65;;;0.90;99.90;;;;;;5052960;28;20210;-81
2023/11/30 00:05:00;;;;;;;1.33;1.23;;;0.90;99.90;;;;;;5042902;28;20196;-81
2023/11/30 00:07:26;;;;;;;0.82;0.82;;;0.90;99.90;;;;;;5044714;28;20200;-80
2023/11/30 00:09:53;;;;;;;0.82;0.82;;;0.90;99.90;;;;;;5039180;28;20220;-80
2023/11/30 00:12:20;;;;;;;0.40;0.40;;;1.00;99.90;;;;;;5048168;28;20196;-81
2023/11/30 00:14:47;;;;;;;1.88;1.30;;;1.00;99.90;;;;;;5047712;28;20210;-80
2023/11/30 00:17:14;;;;;;;0.60;0.60;;;1.00;99.90;;;;;;5052851;28;20209;-80
2023/11/30 00:19:40;;;;;;;2.05;1.95;;;1.00;99.90;;;;;;5059651;28;20227;-80
2023/11/30 00:22:08;;;;;;;0.40;0.40;;;1.00;99.90;;;;;;5059886;28;20200;-80
2023/11/30 00:24:35;;;;;;;0.73;0.73;;;1.00;99.90;;;;;;5060697;28;20195;-80
2023/11/30 00:27:02;;;;;;;2.03;1.85;;;1.00;99.90;;;;;;5059550;28;20209;-81
2023/11/30 00:29:29;;;;;;;2.15;2.05;;;1.00;99.90;;;;;;5044466;28;20238;-78
2023/11/30 00:31:56;;;;;;;0.40;0.40;;;1.00;99.90;;;;;;5048397;28;20195;-81
2023/11/30 00:34:22;;;;;;;0.50;0.50;;;1.00;99.90;;;;;;5045822;28;20201;-80
2023/11/30 00:36:49;;;;;;;1.15;1.05;;;1.00;99.90;;;;;;5050889;28;20203;-80
2023/11/30 00:39:17;;;;;;;0.40;0.40;;;0.90;99.90;;;;;;5051564;28;20741;-80
2023/11/30 00:41:44;;;;;;;0.50;0.50;;;0.90;99.90;;;;;;5051357;28;20306;-80
2023/11/30 00:44:11;;;;;;;0.50;0.50;;;0.90;99.90;;;;;;5039496;28;20192;-80
2023/11/30 00:46:37;;;;;;;0.50;0.50;;;0.90;99.90;;;;;;5055944;28;20573;-81
2023/11/30 00:49:04;;;;;;;0.50;0.50;;;0.90;99.90;;;;;;5048244;28;20215;-80
2023/11/30 00:51:31;;;;;;;1.35;1.13;;;0.90;99.90;;;;;;5039400;28;20681;-80
2023/11/30 00:53:58;;;;;;;0.40;0.40;;;0.90;99.90;;;;;;5047811;28;20199;-80
2023/11/30 00:56:26;;;;;;;0.40;0.40;;;0.90;99.90;;;;;;5039727;28;20212;-80
2023/11/30 00:58:53;;;;;;;1.90;1.80;;;0.90;99.90;;;;;;5049515;28;20215;-81
2023/11/30 01:01:20;;;;;;;2.05;1.90;;;0.90;99.90;;;;;;5046048;28;20192;-80
2023/11/30 01:03:47;;;;;;;3.00;1.20;;;0.90;99.90;;;;;;5047893;28;20195;-79
2023/11/30 01:06:14;;;;;;;0.40;0.40;;;0.90;99.90;;;;;;5047511;28;20188;-81
2023/11/30 01:08:41;;;;;;;0.40;0.40;;;0.90;99.90;;;;;;5055022;28;20223;-79
2023/11/30 01:11:08;;;;;;;5.22;0.98;;;0.90;99.90;;;;;;5048039;28;20202;-80
2023/11/30 01:13:36;;;;;;;2.83;2.70;;;0.90;99.90;;;;;;5045726;28;20254;-81
2023/11/30 01:16:02;;;;;;;0.40;0.40;;;0.90;99.90;;;;;;5051252;28;20222;-80
2023/11/30 01:18:29;;;;;;;0.82;0.82;;;1.00;99.90;;;;;;5059105;28;20203;-79
2023/11/30 01:20:56;;;;;;;0.50;0.40;;;1.00;99.90;;;;;;5050389;28;20196;-81
2023/11/30 01:23:23;;;;;;;0.40;0.40;;;1.00;99.90;;;;;;5054106;28;20195;-80
2023/11/30 01:25:49;;;;;;;0.40;0.40;;;1.00;99.90;;;;;;5056220;28;20195;-80
2023/11/30 01:28:16;;;;;;;0.40;0.40;;;0.90;99.90;;;;;;5054410;28;20647;-80
2023/11/30 01:30:44;;;;;;;0.63;0.63;;;0.90;99.90;;;;;;5038644;28;20196;-81
2023/11/30 01:33:11;;;;;;;0.40;0.40;;;0.80;99.90;;;;;;5050292;28;20670;-79
2023/11/30 01:35:38;;;;;;;0.40;0.40;;;0.80;99.90;;;;;;5043477;28;20219;-81
2023/11/30 01:38:05;;;;;;;0.70;0.70;;;0.80;99.90;;;;;;5057100;28;20221;-80
2023/11/30 01:40:31;;;;;;;0.40;0.40;;;0.90;99.90;;;;;;5050414;28;20214;-81
2023/11/30 01:42:58;;;;;;;0.40;0.40;;;0.90;99.90;;;;;;5049436;28;20196;-80
2023/11/30 01:45:25;;;;;;;0.50;0.40;;;0.90;99.90;;;;;;5047482;28;20571;-81
2023/11/30 01:47:53;;;;;;;0.70;0.70;;;0.90;99.90;;;;;;5046850;28;20658;-81
2023/11/30 01:50:20;;;;;;;1.85;1.77;;;0.90;99.90;;;;;;5050823;28;20221;-80
2023/11/30 01:52:47;;;;;;;0.40;0.40;;;0.90;99.90;;;;;;5050447;28;20214;-80
2023/11/30 01:55:14;;;;;;;0.40;0.40;;;0.90;99.90;;;;;;5041578;28;20207;-80
2023/11/30 01:57:42;;;;;;;2.47;1.85;;;0.80;99.90;;;;;;5050802;28;20192;-80
2023/11/30 02:00:11;;;;;;;1.30;1.30;;;0.80;99.90;;;;;;5037958;28;20215;-81
2023/11/30 02:02:38;;;;;;;0.40;0.40;;;0.70;99.90;;;;;;5047319;28;20282;-80
2023/11/30 02:05:08;;;;;;;2.42;2.15;;;0.70;99.90;;;;;;5039386;28;20187;-80
2023/11/30 02:07:35;;;;;;;0.40;0.40;;;0.60;99.90;;;;;;5044942;28;20282;-80
2023/11/30 02:10:02;;;;;;;0.40;0.40;;;0.60;99.90;;;;;;5049218;28;20215;-81
2023/11/30 02:12:29;;;;;;;0.40;0.40;;;0.50;99.90;;;;;;5043982;28;20763;-81
2023/11/30 02:14:59;;;;;;;0.40;0.40;;;0.40;99.90;;;;;;5058260;28;20206;-81
2023/11/30 02:17:26;;;;;;;0.40;0.40;;;0.30;99.90;;;;;;5057830;28;20194;-78
2023/11/30 02:19:52;;;;;;;0.40;0.40;;;0.20;99.90;;;;;;5058557;28;20215;-79
2023/11/30 02:22:20;;;;;;;0.70;0.70;;;0.10;99.90;;;;;;5058838;28;20201;-81
2023/11/30 02:24:47;;;;;;;0.40;0.40;;;0.10;99.90;;;;;;5050104;28;20199;-81
2023/11/30 02:27:14;;;;;;;0.40;0.40;;;0.00;99.90;;;;;;5055101;28;20702;-80
2023/11/30 02:29:41;;;;;;;0.40;0.40;;;0.00;99.90;;;;;;5044743;28;20233;-81
2023/11/30 02:32:08;;;;;;;0.40;0.40;;;-0.10;99.90;;;;;;5047908;28;20202;-81
2023/11/30 02:34:35;;;;;;;0.40;0.40;;;-0.10;99.90;;;;;;5046169;28;20195;-80
2023/11/30 02:37:02;;;;;;;0.40;0.40;;;-0.20;99.90;;;;;;5054877;28;20301;-80
2023/11/30 02:39:30;;;;;;;0.40;0.40;;;-0.30;99.90;;;;;;5042912;28;20698;-77
2023/11/30 02:41:57;;;;;;;0.40;0.40;;;-0.30;99.90;;;;;;5057397;28;20201;-78
2023/11/30 02:44:24;;;;;;;0.88;0.88;;;-0.30;99.90;;;;;;5042091;28;20221;-80
2023/11/30 02:46:50;;;;;;;0.40;0.40;;;-0.40;99.90;;;;;;5042163;28;20202;-80
2023/11/30 02:49:18;;;;;;;1.15;1.15;;;-0.30;99.90;;;;;;5037741;28;20211;-80
2023/11/30 02:51:44;;;;;;;0.40;0.40;;;-0.40;99.90;;;;;;5052948;22;20250;-80
2023/11/30 02:54:11;;;;;;;0.40;0.40;;;-0.40;99.90;;;;;;5038573;28;20200;-80
2023/11/30 02:56:42;;;;;;;0.40;0.40;;;-0.40;99.90;;;;;;5052607;28;20595;-80
2023/11/30 02:59:09;;;;;;;0.40;0.40;;;-0.40;99.90;;;;;;5052609;28;20206;-80
2023/11/30 03:01:43;;;;;;;0.50;0.50;;;-0.40;99.90;;;;;;5052188;28;20221;-79
2023/11/30 03:04:10;;;;;;;0.40;0.40;;;-0.40;99.90;;;;;;5052393;28;20198;-80
2023/11/30 03:06:38;;;;;;;0.50;0.40;;;-0.40;99.90;;;;;;5052393;28;20207;-80
2023/11/30 03:09:05;;;;;;;0.77;0.77;;;-0.40;99.90;;;;;;5052267;28;20273;-79
2023/11/30 03:11:32;;;;;;;0.40;0.40;;;-0.40;99.90;;;;;;5052310;28;20590;-80
2023/11/30 03:14:00;;;;;;;0.40;0.40;;;-0.50;99.90;;;;;;5052583;28;20201;-79
2023/11/30 03:16:28;;;;;;;0.40;0.40;;;-0.50;99.90;;;;;;5052539;28;20211;-80
2023/11/30 03:18:56;;;;;;;0.40;0.40;;;-0.50;99.90;;;;;;5052735;28;20272;-80
2023/11/30 03:21:23;;;;;;;0.40;0.40;;;-0.60;99.90;;;;;;5044546;28;20301;-80
2023/11/30 03:23:51;;;;;;;0.40;0.40;;;-0.50;99.90;;;;;;5052413;28;20234;-80
2023/11/30 03:26:18;;;;;;;0.45;0.45;;;-0.50;99.90;;;;;;5051851;28;20203;-79
2023/11/30 03:28:46;;;;;;;0.40;0.40;;;-0.50;99.90;;;;;;5052604;28;20203;-80
2023/11/30 03:31:14;;;;;;;2.60;2.40;;;-0.50;99.90;;;;;;5051870;28;20223;-79
2023/11/30 03:33:41;;;;;;;1.90;1.80;;;-0.40;99.90;;;;;;5052456;28;20201;-80
2023/11/30 03:36:09;;;;;;;0.40;0.40;;;-0.40;99.90;;;;;;5052044;28;20218;-80
2023/11/30 03:38:36;;;;;;;0.40;0.40;;;-0.40;99.90;;;;;;5052247;28;20210;-79
2023/11/30 03:41:03;;;;;;;1.05;1.05;;;-0.30;99.90;;;;;;5051732;28;20254;-80
2023/11/30 03:43:30;;;;;;;0.47;0.47;;;-0.30;99.90;;;;;;5052975;28;20210;-79
2023/11/30 03:45:56;;;;;;;0.40;0.40;;;-0.30;99.90;;;;;;5054447;28;20206;-80
2023/11/30 03:48:25;;;;;;;0.40;0.40;;;-0.30;99.90;;;;;;5052062;28;20201;-80
2023/11/30 03:50:51;;;;;;;0.40;0.40;;;-0.40;99.90;;;;;;5052175;28;20198;-80
2023/11/30 03:53:18;;;;;;;0.40;0.40;;;-0.40;99.90;;;;;;5052093;28;20202;-80
2023/11/30 03:55:45;;;;;;;0.50;0.50;;;-0.40;99.90;;;;;;5052019;28;20219;-80
2023/11/30 03:58:12;;;;;;;0.40;0.40;;;-0.30;99.90;;;;;;5052042;28;20199;-80
2023/11/30 04:00:38;;;;;;;1.55;1.52;;;-0.30;99.90;;;;;;5051714;28;20209;-80
2023/11/30 04:03:05;;;;;;;0.40;0.40;;;-0.30;99.90;;;;;;5051737;28;20203;-80
2023/11/30 04:05:33;;;;;;;0.40;0.40;;;-0.30;99.90;;;;;;5052001;28;20678;-80
2023/11/30 04:08:00;;;;;;;0.40;0.40;;;-0.30;99.90;;;;;;5052077;28;20205;-80
2023/11/30 04:10:27;;;;;;;0.50;0.50;;;-0.30;99.90;;;;;;5043416;28;20199;-79
2023/11/30 04:12:54;;;;;;;0.40;0.40;;;-0.20;99.90;;;;;;5051449;28;20697;-80
2023/11/30 04:15:21;;;;;;;0.40;0.40;;;-0.20;99.90;;;;;;5051375;28;20207;-80
2023/11/30 04:17:48;;;;;;;0.40;0.40;;;-0.20;99.90;;;;;;5051794;28;20226;-80
2023/11/30 04:20:15;;;;;;;0.40;0.40;;;-0.20;99.90;;;;;;5051784;28;20203;-80
2023/11/30 04:22:43;;;;;;;8.32;3.38;;;-0.20;99.90;;;;;;5052239;28;20591;-80
2023/11/30 04:25:10;;;;;;;0.40;0.40;;;-0.10;99.90;;;;;;5051976;28;20659;-80
2023/11/30 04:27:36;;;;;;;12.32;1.95;;;-0.10;99.90;;;;;;5052776;28;20203;-81
2023/11/30 04:30:04;;;;;;;0.40;0.40;;;-0.10;99.90;;;;;;5053952;28;20199;-81
2023/11/30 04:32:31;;;;;;;1.05;1.05;;;-0.10;99.90;;;;;;5052898;28;20225;-80
2023/11/30 04:34:58;;;;;;;8.07;2.58;;;-0.10;99.90;;;;;;5052284;28;20203;-81
2023/11/30 04:37:25;;;;;;;0.73;0.73;;;-0.10;99.90;;;;;;5051950;28;20214;-80
2023/11/30 04:39:53;;;;;;;0.40;0.40;;;-0.10;99.90;;;;;;5053314;28;20289;-81
2023/11/30 04:42:20;;;;;;;0.93;0.93;;;-0.10;99.90;;;;;;5056401;28;20242;-80
2023/11/30 04:44:47;;;;;;;1.42;1.40;;;-0.10;99.90;;;;;;5056037;28;20294;-80
2023/11/30 04:47:14;;;;;;;0.75;0.75;;;-0.10;99.90;;;;;;5055676;28;20197;-80
2023/11/30 04:49:40;;;;;;;1.60;1.50;;;-0.10;99.90;;;;;;5055582;28;20207;-81
2023/11/30 04:52:07;;;;;;;2.15;0.82;;;-0.10;99.90;;;;;;5056419;28;20223;-80
2023/11/30 04:54:34;;;;;;;1.25;1.25;;;-0.10;99.90;;;;;;5057236;28;20195;-80
2023/11/30 04:57:02;;;;;;;1.05;1.05;;;0.00;99.90;;;;;;5056008;28;20225;-80
2023/11/30 04:59:30;;;;;;;1.05;1.05;;;0.00;99.90;;;;;;5055351;28;20699;-81
2023/11/30 05:01:56;;;;;;;2.88;1.50;;;0.10;99.90;;;;;;5055432;28;20683;-81
2023/11/30 05:04:23;;;;;;;0.82;0.82;;;0.10;99.90;;;;;;5055990;28;20696;-81
2023/11/30 05:06:50;;;;;;;0.40;0.40;;;0.10;99.90;;;;;;5055622;28;20666;-80
2023/11/30 05:09:17;;;;;;;0.40;0.40;;;0.20;99.90;;;;;;5055470;28;20204;-80
2023/11/30 05:11:44;;;;;;;0.40;0.40;;;0.20;99.90;;;;;;5055859;28;20646;-81
2023/11/30 05:14:12;;;;;;;0.40;0.40;;;0.20;99.90;;;;;;5055319;28;20205;-80
2023/11/30 05:16:38;;;;;;;0.40;0.40;;;0.20;99.90;;;;;;5055506;28;20736;-79
2023/11/30 05:19:05;;;;;;;0.40;0.40;;;0.20;99.90;;;;;;5055702;28;20203;-80
2023/11/30 05:21:32;;;;;;;0.40;0.40;;;0.20;99.90;;;;;;5054643;28;20225;-81
2023/11/30 05:23:59;;;;;;;0.40;0.40;;;0.20;99.90;;;;;;5054883;28;20196;-80
2023/11/30 05:26:25;;;;;;;1.13;1.13;;;0.30;99.90;;;;;;5054733;28;20195;-80
2023/11/30 05:28:52;;;;;;;0.93;0.93;;;0.30;99.90;;;;;;5055313;28;20217;-81
2023/11/30 05:31:20;;;;;;;3.63;3.35;;;0.30;99.90;;;;;;5054934;28;20223;-80
2023/11/30 05:33:47;;;;;;;0.40;0.40;;;0.30;99.90;;;;;;5055339;28;20609;-79
2023/11/30 05:36:14;;;;;;;0.40;0.40;;;0.30;99.90;;;;;;5055333;28;20215;-79
2023/11/30 05:38:41;;;;;;;0.50;0.50;;;0.30;99.90;;;;;;5054751;28;20191;-79
2023/11/30 05:41:07;;;;;;;6.70;4.90;;;0.30;99.90;;;;;;5054141;28;20585;-79
2023/11/30 05:43:35;;;;;;;4.00;1.15;;;0.30;99.90;;;;;;5054444;28;20198;-79
2023/11/30 05:46:02;;;;;;;1.05;0.95;;;0.30;99.90;;;;;;5054641;28;20195;-80
2023/11/30 05:48:30;;;;;;;0.50;0.50;;;0.30;99.90;;;;;;5055421;28;20199;-79
2023/11/30 05:50:57;;;;;;;0.47;0.47;;;0.30;99.90;;;;;;5054314;28;20214;-78
2023/11/30 05:53:23;;;;;;;0.40;0.40;;;0.40;99.90;;;;;;5055561;28;20195;-80
2023/11/30 05:55:50;;;;;;;1.90;1.83;;;0.40;99.90;;;;;;5055224;28;20207;-79
2023/11/30 05:58:17;;;;;;;0.40;0.40;;;0.40;99.90;;;;;;5054107;28;20217;-80
2023/11/30 06:00:44;;;;;;;0.40;0.35;;;0.50;99.90;;;;;;5053913;28;20199;-79
2023/11/30 06:03:10;;;;;;;2.03;1.85;;;0.50;99.90;;;;;;5054438;28;20199;-79
2023/11/30 06:05:39;;;;;;;0.40;0.40;;;0.50;99.90;;;;;;5046570;28;20286;-80
2023/11/30 06:08:05;;;;;;;0.40;0.40;;;0.60;99.90;;;;;;5053657;28;20195;-79
2023/11/30 06:10:32;;;;;;;0.40;0.40;;;0.60;99.90;;;;;;5054438;28;20727;-79
2023/11/30 06:12:59;;;;;;;0.60;0.60;;;0.60;99.90;;;;;;5055776;28;20670;-80
2023/11/30 06:15:26;;;;;;;0.40;0.40;;;0.60;99.90;;;;;;5054427;28;20230;-79
2023/11/30 06:17:52;;;;;;;0.40;0.40;;;0.60;99.90;;;;;;5056478;28;20675;-81
2023/11/30 06:20:19;;;;;;;0.40;0.40;;;0.70;99.90;;;;;;5055931;28;20195;-80
2023/11/30 06:22:47;;;;;;;0.40;0.40;;;0.70;99.90;;;;;;5055843;28;20221;-80
2023/11/30 06:25:14;;;;;;;0.40;0.40;;;0.70;99.90;;;;;;5055892;28;20200;-80
2023/11/30 06:27:41;;;;;;;0.40;0.40;;;0.70;99.90;;;;;;5054338;28;20651;-80
2023/11/30 06:30:08;;;;;;;1.08;1.08;;;0.70;99.90;;;;;;5055577;28;20199;-80
2023/11/30 06:32:35;;;;;;;0.40;0.40;;;0.70;99.90;;;;;;5055496;28;20297;-79
2023/11/30 06:35:03;;;;;;;0.40;0.40;;;0.70;99.90;;;;;;5061523;28;20217;-81
2023/11/30 06:37:29;;;;;;;0.50;0.40;;;0.70;99.90;;;;;;5056352;28;20245;-81
2023/11/30 06:39:58;;;;;;;0.40;0.40;;;0.70;99.90;;;;;;5056463;28;20203;-80
2023/11/30 06:42:24;;;;;;;8.88;8.50;;;0.70;99.90;;;;;;5056683;28;20651;-80
2023/11/30 06:44:52;;;;;;;0.40;0.40;;;0.70;99.90;;;;;;5056751;28;20198;-81
2023/11/30 06:47:19;;;;;;;0.40;0.40;;;0.70;99.90;;;;;;5056095;28;20213;-80
2023/11/30 06:49:47;;;;;;;0.40;0.40;;;0.70;99.90;;;;;;5055945;28;20679;-81
2023/11/30 06:52:13;;;;;;;0.40;0.40;;;0.70;99.90;;;;;;5056367;28;20214;-81
2023/11/30 06:54:40;;;;;;;0.40;0.40;;;0.60;99.90;;;;;;5055909;28;20567;-80
2023/11/30 06:57:09;;;;;;;0.40;0.40;;;0.70;99.90;;;;;;5057354;28;20225;-79
2023/11/30 06:59:36;;;;;;;0.80;0.80;;;0.60;99.90;;;;;;5055785;28;20211;-79
2023/11/30 07:02:03;;;;;;;0.40;0.40;;;0.60;99.90;;;;;;5054482;28;20219;-79
2023/11/30 07:04:30;;;;;;;0.40;0.40;;;0.70;99.90;;;;;;5053574;28;20206;-79
2023/11/30 07:06:56;;;;;;;8.02;7.60;;;0.70;99.90;;;;;;5053338;28;20191;-78
2023/11/30 07:09:23;;;;;;;0.40;0.35;;;0.60;99.90;;;;;;5053798;28;20294;-79
2023/11/30 07:11:50;;;;;;;0.40;0.40;;;0.60;99.90;;;;;;5054640;28;20301;-80
2023/11/30 07:14:18;;;;;;;0.40;0.40;;;0.60;99.90;;;;;;5053852;28;20293;-79
2023/11/30 07:16:45;;;;;;;0.40;0.40;;;0.70;99.90;;;;;;5045344;28;20211;-77
2023/11/30 07:19:13;;;;;;;0.40;0.40;;;0.60;99.90;;;;;;5052943;28;20218;-78
2023/11/30 07:21:39;;;;;;;0.40;0.40;;;0.70;99.90;;;;;;5052266;28;20227;-80
2023/11/30 07:24:06;;;;;;;0.40;0.40;;;0.70;99.90;;;;;;5053297;28;20202;-81
2023/11/30 07:26:34;;;;;;;0.40;0.40;;;0.70;99.90;;;;;;5053125;28;20207;-79
2023/11/30 07:29:01;;;;;;;0.40;0.40;;;0.70;99.90;;;;;;5054040;28;20206;-80
2023/11/30 07:31:29;;;;;;;0.40;0.40;;;0.70;99.90;;;;;;5053221;28;20229;-81
2023/11/30 07:33:55;;;;;;;0.40;0.40;;;0.70;99.90;;;;;;5053381;28;20198;-79
2023/11/30 07:36:22;;;;;;;0.40;0.40;;;0.70;99.90;;;;;;5052853;28;20199;-79
2023/11/30 07:38:49;;;;;;;0.40;0.40;;;0.70;99.90;;;;;;5052869;28;20207;-78
2023/11/30 07:41:17;;;;;;;0.40;0.40;;;0.70;99.90;;;;;;5052815;28;20214;-80
2023/11/30 07:43:44;;;;;;;0.43;0.40;;;0.80;99.90;;;;;;5054104;28;20191;-80
2023/11/30 07:46:11;;;;;;;0.40;0.40;;;0.70;99.90;;;;;;5052963;28;20195;-79
2023/11/30 07:48:39;;;;;;;0.40;0.40;;;0.70;99.90;;;;;;5053013;28;20252;-79
2023/11/30 07:51:07;;;;;;;1.83;0.95;;;0.70;99.90;;;;;;5052980;28;20286;-81
2023/11/30 07:53:34;;;;;;;0.40;0.40;;;0.70;99.90;;;;;;5052843;28;20693;-81
2023/11/30 07:56:01;;;;;;;3.05;2.25;;;0.80;99.90;;;;;;5053320;28;20574;-80
2023/11/30 07:58:27;;;;;;;2.45;2.35;;;0.70;99.90;;;;;;5053164;28;20282;-80
2023/11/30 08:00:56;;;;;;;0.40;0.40;;;0.80;99.90;;;;;;5055247;28;20195;-79
2023/11/30 08:03:23;;;;;;;0.40;0.40;;;0.70;99.90;;;;;;5052452;28;20230;-79
2023/11/30 08:05:51;;;;;;;0.40;0.40;;;0.80;99.90;;;;;;5053796;28;20191;-78
2023/11/30 08:08:18;;;;;;;0.40;0.40;;;0.80;99.90;;;;;;5053399;28;20195;-80
2023/11/30 08:10:45;;;;;;;0.40;0.40;;;0.80;99.90;;;;;;5052846;28;20196;-80
2023/11/30 08:13:13;;;;;;;0.40;0.40;;;0.90;99.90;;;;;;5052415;28;20222;-81
2023/11/30 08:15:40;;;;;;;0.40;0.40;;;0.90;99.90;;;;;;5054851;28;20203;-79
2023/11/30 08:18:07;;;;;;;0.40;0.40;;;0.90;99.90;;;;;;5056837;28;20210;-80
2023/11/30 08:20:34;;;;;;;0.40;0.40;;;0.90;99.90;;;;;;5056950;28;20203;-80
2023/11/30 08:23:03;;;;;;;0.55;0.55;;;1.00;99.90;;;;;;5057227;28;20637;-81
2023/11/30 08:25:30;;;;;;;1.73;1.63;;;1.00;99.90;;;;;;5057947;28;20203;-80
2023/11/30 08:27:57;;;;;;;0.40;0.40;;;1.10;99.90;;;;;;5057787;28;20206;-80
2023/11/30 08:30:25;;;;;;;4.20;4.00;;;1.20;99.90;;;;;;5056750;28;20523;-82
2023/11/30 08:32:52;;;;;;;0.77;0.77;;;1.20;99.90;;;;;;5062873;28;20215;-82
2023/11/30 08:35:20;;;;;;;4.93;4.65;;;1.30;99.90;;;;;;5063860;28;20226;-81
2023/11/30 08:37:46;;;;;;;0.60;0.60;;;1.30;99.90;;;;;;5055813;28;20695;-79
2023/11/30 08:40:15;;;;;;;0.40;0.40;;;1.40;99.90;;;;;;5056088;28;20282;-80
2023/11/30 08:42:42;;;;;;;0.40;0.40;;;1.50;99.90;;;;;;5056373;28;20221;-80
2023/11/30 08:45:09;;;;;;;3.67;3.40;;;1.60;99.90;;;;;;5056373;28;20233;-80
2023/11/30 08:47:36;;;;;;;0.40;0.40;;;2.00;99.90;;;;;;5056261;28;20200;-81
2023/11/30 08:50:04;;;;;;;1.40;1.30;;;2.50;99.90;;;;;;5055767;28;20655;-81
2023/11/30 08:52:30;;;;;;;0.50;0.40;;;2.70;99.90;;;;;;5056042;28;20277;-78
2023/11/30 08:54:57;;;;;;;4.30;3.97;;;2.80;99.90;;;;;;5072781;22;20227;-81
2023/11/30 08:57:25;;;;;;;0.40;0.40;;;3.20;99.90;;;;;;5063284;28;20279;-81
2023/11/30 08:59:52;;;;;;;5.18;1.30;;;3.30;99.90;;;;;;5064668;28;20199;-81
2023/11/30 09:02:21;;;;;;;1.70;1.63;;;3.70;99.90;;;;;;5063543;28;20327;-81
2023/11/30 09:04:47;;;;;;;0.40;0.40;;;4.20;99.90;;;;;;5058823;28;20215;-79
2023/11/30 09:07:14;;;;;;;0.52;0.52;;;4.60;99.90;;;;;;5058418;28;20262;-79
2023/11/30 09:09:41;;;;;;;0.68;0.68;;;4.90;99.90;;;;;;5060953;28;20222;-80
2023/11/30 09:12:08;;;;;;;0.50;0.40;;;4.70;99.90;;;;;;5060156;28;20187;-80
2023/11/30 09:14:36;;;;;;;0.50;0.40;;;4.40;99.90;;;;;;5060720;28;20222;-79
2023/11/30 09:17:04;;;;;;;0.50;0.47;;;4.10;99.90;;;;;;5060288;28;20201;-81
2023/11/30 09:19:31;;;;;;;0.50;0.40;;;3.80;99.90;;;;;;5062290;28;20198;-77
2023/11/30 09:21:58;;;;;;;0.93;0.93;;;3.60;99.90;;;;;;5061897;28;20190;-78
2023/11/30 09:24:24;;;;;;;1.95;1.83;;;3.40;99.90;;;;;;5061551;28;20241;-80
2023/11/30 09:26:53;;;;;;;0.50;0.50;;;3.30;99.90;;;;;;5061449;28;20190;-80
2023/11/30 09:29:20;;;;;;;2.25;1.38;;;3.30;99.90;;;;;;5061964;28;20187;-80
2023/11/30 09:31:48;;;;;;;1.20;1.20;;;3.80;99.90;;;;;;5061436;28;20201;-80
2023/11/30 09:34:15;;;;;;;1.85;1.75;;;4.00;99.90;;;;;;5061708;28;20293;-81
2023/11/30 09:36:41;;;;;;;2.45;2.25;;;4.10;99.90;;;;;;5061417;28;20198;-80
2023/11/30 09:39:08;;;;;;;0.50;0.40;;;4.00;99.90;;;;;;5060954;28;20218;-80
2023/11/30 09:41:36;;;;;;;0.50;0.40;;;4.30;99.90;;;;;;5061057;28;20257;-80
2023/11/30 09:44:03;;;;;;;1.73;1.63;;;4.60;99.90;;;;;;5061108;28;20199;-80
2023/11/30 09:46:31;;;;;;;0.50;0.40;;;4.80;99.90;;;;;;5061233;28;20281;-80
2023/11/30 09:48:59;;;;;;;3.30;3.13;;;4.80;99.90;;;;;;5061724;28;20237;-79
2023/11/30 09:51:28;;;;;;;5.75;1.90;;;5.00;99.90;;;;;;5061863;28;20198;-80
2023/11/30 09:53:57;;;;;;;0.50;0.40;;;5.20;99.90;;;;;;5060580;28;20187;-80
2023/11/30 09:56:26;;;;;;;3.40;3.20;;;5.10;99.90;;;;;;5061247;28;20263;-79
2023/11/30 09:58:53;;;;;;;0.98;0.98;;;4.90;99.90;;;;;;5061379;28;20217;-78
2023/11/30 10:01:20;;;;;;;5.10;2.50;;;4.80;99.90;;;;;;5061230;28;20245;-81
2023/11/30 10:03:47;;;;;;;4.55;3.10;;;5.10;99.90;;;;;;5060809;28;20202;-78
2023/11/30 10:06:16;;;;;;;0.50;0.40;;;5.50;99.90;;;;;;5061451;28;20203;-80
2023/11/30 10:08:43;;;;;;;0.50;0.50;;;6.00;99.90;;;;;;5060709;28;20278;-80
2023/11/30 10:11:12;;;;;;;2.97;2.20;;;6.40;99.90;;;;;;5061474;28;20198;-80
2023/11/30 10:13:38;;;;;;;40.50;38.33;;;6.60;99.90;;;;;;5062336;28;20235;-80
2023/11/30 10:16:06;;;;;;;4.88;4.53;;;6.60;99.90;;;;;;5061630;28;20218;-80
2023/11/30 10:18:34;;;;;;;5.05;4.50;;;6.50;99.90;;;;;;5062004;28;20231;-80
2023/11/30 10:21:01;;;;;;;1.25;1.25;;;6.50;99.90;;;;;;5053360;28;20575;-80
2023/11/30 10:23:29;;;;;;;0.50;0.40;;;6.80;99.90;;;;;;5061446;28;20198;-80
2023/11/30 10:25:57;;;;;;;11.30;2.17;;;7.00;99.90;;;;;;5061171;28;20263;-80
2023/11/30 10:28:24;;;;;;;0.73;0.73;;;7.40;99.90;;;;;;5061343;28;20512;-80
2023/11/30 10:30:54;;;;;;;0.50;0.40;;;8.00;99.90;;;;;;5061376;28;20195;-80
2023/11/30 10:33:23;;;;;;;2.08;1.98;;;8.50;99.90;;;;;;5061761;28;20244;-79
2023/11/30 10:35:52;;;;;;;2.05;1.52;;;8.60;99.90;;;;;;5062367;28;20219;-79
2023/11/30 10:38:27;;;;;;;0.60;0.60;;;8.60;99.90;;;;;;5061644;28;20309;-80
2023/11/30 10:41:00;;;;;;;0.50;0.40;;;8.80;99.90;;;;;;5062075;28;20194;-77
2023/11/30 10:43:29;;;;;;;0.50;0.40;;;9.10;99.90;;;;;;5062333;28;20187;-80
2023/11/30 10:46:00;;;;;;;0.85;0.85;;;9.30;99.90;;;;;;5062073;28;20968;-80
2023/11/30 10:48:29;;;;;;;0.50;0.40;;;9.00;99.90;;;;;;5061893;28;20191;-80
2023/11/30 10:50:57;;;;;;;4.50;1.50;;;9.00;99.90;;;;;;5061608;28;20936;-78
2023/11/30 10:53:36;;;;;;;4.60;2.65;;;8.80;99.90;;;;;;5068647;28;20195;-80
2023/11/30 10:56:06;;;;;;;0.75;0.75;;;8.60;99.90;;;;;;5052529;28;20690;-80
2023/11/30 10:58:33;;;;;;;3.13;2.10;;;8.50;99.90;;;;;;5061559;28;20222;-80
2023/11/30 11:01:00;;;;;;;3.78;2.90;;;8.70;99.90;;;;;;5060988;28;20821;-80
2023/11/30 11:03:28;;;;;;;1.33;1.23;;;8.70;99.90;;;;;;5061761;28;20206;-80
2023/11/30 11:05:56;;;;;;;1.85;1.75;;;8.50;99.90;;;;;;5060966;28;20218;-80
2023/11/30 11:08:24;;;;;;;0.50;0.40;;;8.20;99.90;;;;;;5060969;28;20218;-80
2023/11/30 11:10:51;;;;;;;1.60;1.50;;;8.00;99.90;;;;;;5060749;28;20191;-80
2023/11/30 11:13:23;;;;;;;3.53;1.58;;;8.00;99.90;;;;;;5061118;28;20203;-80
2023/11/30 11:15:59;;;;;;;2.17;1.92;;;7.70;99.90;;;;;;5060420;28;20245;-79
2023/11/30 11:18:31;;;;;;;1.35;1.05;;;7.60;99.90;;;;;;5060702;28;20207;-80
2023/11/30 11:20:58;;;;;;;0.80;0.70;;;7.40;99.90;;;;;;5060066;28;20195;-79
2023/11/30 11:23:34;;;;;;;0.50;0.40;;;7.30;99.90;;;;;;5060319;28;20194;-79
2023/11/30 11:26:03;;;;;;;0.60;0.60;;;7.50;99.90;;;;;;5060579;28;20341;-80
2023/11/30 11:28:31;;;;;;;0.70;0.70;;;8.00;99.90;;;;;;5059924;28;20191;-80
2023/11/30 11:30:59;;;;;;;0.60;0.60;;;8.20;99.90;;;;;;5059468;28;20194;-79
2023/11/30 11:33:26;;;;;;;3.95;3.15;;;8.30;99.90;;;;;;5059660;28;20643;-79
2023/11/30 11:35:53;;;;;;;2.60;1.80;;;9.00;99.90;;;;;;5058949;28;20219;-79
2023/11/30 11:38:20;;;;;;;1.57;1.47;;;9.80;99.90;;;;;;5059171;28;20477;-81
2023/11/30 11:40:47;;;;;;;0.87;0.87;;;10.20;99.90;;;;;;5058269;28;20952;-80
2023/11/30 11:43:14;;;;;;;1.43;0.93;;;10.40;99.90;;;;;;5058697;28;20933;-80
2023/11/30 11:45:42;;;;;;;2.90;1.23;;;10.40;99.90;;;;;;5059182;28;20457;-80
2023/11/30 11:48:10;;;;;;;0.50;0.40;;;10.10;99.90;;;;;;5050384;28;20437;-80
2023/11/30 11:50:38;;;;;;;0.90;0.90;;;9.80;99.90;;;;;;5057686;28;20445;-80
2023/11/30 11:53:06;;;;;;;1.40;1.30;;;10.00;99.90;;;;;;5056983;28;20945;-80
2023/11/30 11:55:33;;;;;;;0.50;0.40;;;9.90;99.90;;;;;;5059327;28;20480;-81
2023/11/30 11:57:59;;;;;;;0.50;0.40;;;9.90;99.90;;;;;;5058053;28;20445;-81
2023/11/30 12:00:26;;;;;;;0.50;0.40;;;9.80;99.90;;;;;;5058094;28;20436;-81
2023/11/30 12:03:04;;;;;;;1.40;1.37;;;9.50;99.90;;;;;;5062596;28;20438;-81
2023/11/30 12:05:31;;;;;;;5.33;4.93;;;9.40;99.90;;;;;;5062369;28;20453;-81
2023/11/30 12:07:59;;;;;;;0.50;0.43;;;9.00;99.90;;;;;;5059472;28;20452;-80
2023/11/30 12:10:28;;;;;;;0.50;0.40;;;8.80;99.90;;;;;;5060588;28;20191;-81
2023/11/30 12:12:56;;;;;;;0.50;0.40;;;8.40;99.90;;;;;;5057438;28;20211;-81
2023/11/30 12:15:22;;;;;;;0.50;0.40;;;8.20;99.90;;;;;;5058211;28;20590;-81
2023/11/30 12:17:49;;;;;;;8.52;6.75;;;8.00;99.90;;;;;;5058379;28;20199;-81
2023/11/30 12:20:18;;;;;;;0.80;0.80;;;7.80;99.90;;;;;;5057962;28;20213;-81
2023/11/30 12:22:45;;;;;;;0.50;0.40;;;7.60;99.90;;;;;;5055669;28;20203;-81
2023/11/30 12:25:12;;;;;;;0.77;0.75;;;7.50;99.90;;;;;;5048059;28;20211;-82
2023/11/30 12:27:38;;;;;;;0.50;0.50;;;7.50;99.90;;;;;;5056245;28;20245;-82
2023/11/30 12:30:07;;;;;;;0.90;0.90;;;7.40;99.90;;;;;;5060140;28;20197;-81
2023/11/30 12:32:34;;;;;;;0.50;0.40;;;7.30;99.90;;;;;;5059083;28;20448;-81
2023/11/30 12:35:02;;;;;;;0.50;0.47;;;7.20;99.90;;;;;;5057856;28;20220;-82
2023/11/30 12:37:30;;;;;;;3.17;1.40;;;7.10;99.90;;;;;;5058174;28;20192;-82
2023/11/30 12:39:57;;;;;;;3.22;2.67;;;7.00;99.90;;;;;;5058020;28;20218;-80
2023/11/30 12:42:24;;;;;;;0.50;0.40;;;7.00;99.90;;;;;;5057214;28;20195;-80
2023/11/30 12:44:51;;;;;;;0.50;0.50;;;6.90;99.90;;;;;;5057019;28;20215;-81
2023/11/30 12:47:17;;;;;;;0.50;0.40;;;6.90;99.90;;;;;;5056205;28;20198;-82
2023/11/30 12:49:46;;;;;;;1.25;0.90;;;6.90;99.90;;;;;;5056441;28;20192;-83
2023/11/30 12:52:14;;;;;;;0.50;0.40;;;7.00;99.90;;;;;;5056822;28;20262;-79
2023/11/30 12:54:44;;;;;;;0.50;0.40;;;6.90;99.90;;;;;;5055386;28;20242;-82